Monday, January 21, 2019, 5:46 PM EST
Back to Local

KPOU, Poughkeepsie Dutchess Cty

Location: Wappingers Falls, NY, United States Lat: 41.633
Local Time: 5:46 PM EST (22:46 GMT) Lon: -73.883
Time Zone: US/Eastern Elev: 167 ft

Show me the last for .
Show Decoded

2019-01-21 16:53 METAR KPOU 212153Z 29016G23KT 10SM CLR M11/M21 A3012 RMK AO2 PK WND 27027/2057
                 SLP199 T11061211 =
2019-01-21 15:53 METAR KPOU 212053Z 28018G25KT 10SM CLR M09/M20 A3007 RMK AO2 PK WND 29026/2011
                 SLP182 T10941200 53016 =
2019-01-21 14:53 METAR KPOU 211953Z 28018G24KT 10SM SCT045 SCT055 M09/M19 A3004 RMK AO2 PK WND
                 28027/1933 SLP171 T10941194 =
2019-01-21 13:53 METAR KPOU 211853Z 30010KT 10SM SCT041 OVC048 M11/M19 A3003 RMK AO2 SLP167
                 T11061189 =
2019-01-21 12:53 METAR KPOU 211753Z 31007KT 10SM OVC037 M12/M19 A3002 RMK AO2 SLP166 T11221194
                 11122 21161 51007 =
2019-01-21 11:53 METAR KPOU 211653Z 29005KT 10SM FEW036 BKN046 OVC065 M13/M21 A3002 RMK AO2
                 SLP164 T11331211 =
2019-01-21 10:53 METAR KPOU 211553Z 28011KT 270V330 10SM FEW075 M14/M22 A3002 RMK AO2 SLP167
                 T11441217 =
2019-01-21 09:53 METAR KPOU 211453Z 30018G23KT 10SM SCT075 M14/M23 A3000 RMK AO2 SLP158 T11441228
                 51026 =
2019-01-21 08:53 METAR KPOU 211353Z 29007KT 10SM OVC060 M16/M23 A2997 RMK AO2 SLP150 T11561228 =
2019-01-21 07:53 METAR KPOU 211253Z 28008KT 10SM BKN050 M16/M23 A2995 RMK AO2 SLP143 T11611233 =
2019-01-21 06:53 METAR KPOU 211153Z 30006KT 10SM SCT055 OVC075 M16/M23 A2992 RMK AO2 SLP132 70014
                 T11611228 11133 21161 53023 =
2019-01-21 05:53 METAR KPOU 211053Z AUTO 31006KT 10SM OVC055 M16/M23 A2989 RMK AO2 SLP122
                 T11561228 =
2019-01-21 04:53 METAR KPOU 210953Z AUTO 30007KT 10SM OVC041 M16/M22 A2987 RMK AO2 SLP115
                 T11561222 =
2019-01-21 03:53 METAR KPOU 210853Z AUTO 32006KT 10SM OVC044 M16/M22 A2985 RMK AO2 SLP109
                 T11561222 51022 =
2019-01-21 02:53 METAR KPOU 210753Z AUTO 31004KT 10SM FEW055 M15/M22 A2985 RMK AO2 SLP106
                 T11501217 =
2019-01-21 01:53 METAR KPOU 210653Z AUTO 29008KT 10SM CLR M14/M21 A2982 RMK AO2 SLP096 T11441206
                 =
2019-01-21 00:53 METAR KPOU 210553Z AUTO 30009KT 10SM CLR M13/M21 A2979 RMK AO2 SLP087 T11331206
                 11089 21133 51030 =
2019-01-20 23:53 METAR KPOU 210453Z AUTO 30008KT 10SM CLR M13/M19 A2976 RMK AO2 SLP077 T11281194
                 400001128 =
2019-01-20 22:53 METAR KPOU 210353Z AUTO 29012G16KT 10SM CLR M12/M19 A2973 RMK AO2 SLP066
                 T11221194 =
2019-01-20 21:53 METAR KPOU 210253Z AUTO 31011KT 10SM CLR M11/M18 A2970 RMK AO2 SLP056 T11111183
                 51025 =
2019-01-20 20:53 METAR KPOU 210153Z AUTO 31011G19KT 10SM CLR M11/M18 A2968 RMK AO2 SLP051
                 T11061178 =
2019-01-20 19:53 METAR KPOU 210053Z 30012KT 10SM CLR M10/M17 A2965 RMK AO2 SLP040 T11001167 =
2019-01-20 18:53 METAR KPOU 202353Z 32013G20KT 10SM CLR M09/M16 A2962 RMK AO2 SLP030 60000
                 T10891156 11022 21089 53044 =
2019-01-20 17:53 METAR KPOU 202253Z 32012G22KT 10SM FEW027 M07/M13 A2957 RMK AO2 SLP012 T10671133
                 =

Support USWX by starting your Amazon purchase here.